sensor_id;sensor_type;location;lat;lon;timestamp;temperature;humidity
74294;DHT22;64044;59.904;10.738;2023-11-19T00:00:31;-3.50;64.70
74294;DHT22;64044;59.904;10.738;2023-11-19T00:02:57;-3.50;64.70
74294;DHT22;64044;59.904;10.738;2023-11-19T00:05:23;-3.50;64.60
74294;DHT22;64044;59.904;10.738;2023-11-19T00:07:48;-3.40;64.70
74294;DHT22;64044;59.904;10.738;2023-11-19T00:10:16;-3.40;64.80
74294;DHT22;64044;59.904;10.738;2023-11-19T00:12:46;-3.40;65.10
74294;DHT22;64044;59.904;10.738;2023-11-19T00:15:13;-3.40;65.20
74294;DHT22;64044;59.904;10.738;2023-11-19T00:17:42;-3.40;65.00
74294;DHT22;64044;59.904;10.738;2023-11-19T00:20:12;-3.40;64.90
74294;DHT22;64044;59.904;10.738;2023-11-19T00:22:39;-3.30;65.00
74294;DHT22;64044;59.904;10.738;2023-11-19T00:25:05;-3.30;64.90
74294;DHT22;64044;59.904;10.738;2023-11-19T00:27:31;-3.30;65.10
74294;DHT22;64044;59.904;10.738;2023-11-19T00:29:57;-3.30;64.90
74294;DHT22;64044;59.904;10.738;2023-11-19T00:32:23;-3.30;64.70
74294;DHT22;64044;59.904;10.738;2023-11-19T00:34:49;-3.30;64.90
74294;DHT22;64044;59.904;10.738;2023-11-19T00:37:15;-3.30;64.90
74294;DHT22;64044;59.904;10.738;2023-11-19T00:39:41;-3.30;64.90
74294;DHT22;64044;59.904;10.738;2023-11-19T00:42:07;-3.30;65.10
74294;DHT22;64044;59.904;10.738;2023-11-19T00:44:33;-3.20;64.70
74294;DHT22;64044;59.904;10.738;2023-11-19T00:46:58;-3.20;64.50
74294;DHT22;64044;59.904;10.738;2023-11-19T00:49:25;-3.20;64.70
74294;DHT22;64044;59.904;10.738;2023-11-19T00:51:51;-3.20;64.70
74294;DHT22;64044;59.904;10.738;2023-11-19T00:54:17;-3.20;64.50
74294;DHT22;64044;59.904;10.738;2023-11-19T00:56:43;-3.20;64.50
74294;DHT22;64044;59.904;10.738;2023-11-19T00:59:08;-3.10;64.70
74294;DHT22;64044;59.904;10.738;2023-11-19T01:01:34;-3.10;64.50
74294;DHT22;64044;59.904;10.738;2023-11-19T01:04:00;-3.10;64.60
74294;DHT22;64044;59.904;10.738;2023-11-19T01:06:32;-3.00;64.60
74294;DHT22;64044;59.904;10.738;2023-11-19T01:08:58;-3.00;64.60
74294;DHT22;64044;59.904;10.738;2023-11-19T01:11:24;-3.00;64.60
74294;DHT22;64044;59.904;10.738;2023-11-19T01:13:51;-2.90;64.40
74294;DHT22;64044;59.904;10.738;2023-11-19T01:16:17;-2.90;64.20
74294;DHT22;64044;59.904;10.738;2023-11-19T01:18:43;-2.80;65.00
74294;DHT22;64044;59.904;10.738;2023-11-19T01:21:08;-2.80;64.20
74294;DHT22;64044;59.904;10.738;2023-11-19T01:23:35;-2.80;63.90
74294;DHT22;64044;59.904;10.738;2023-11-19T01:26:01;-2.80;63.80
74294;DHT22;64044;59.904;10.738;2023-11-19T01:28:26;-2.70;64.10
74294;DHT22;64044;59.904;10.738;2023-11-19T01:30:52;-2.70;64.00
74294;DHT22;64044;59.904;10.738;2023-11-19T01:33:18;-2.70;64.00
74294;DHT22;64044;59.904;10.738;2023-11-19T01:35:44;-2.60;64.00
74294;DHT22;64044;59.904;10.738;2023-11-19T01:38:09;-2.60;63.90
74294;DHT22;64044;59.904;10.738;2023-11-19T01:40:36;-2.60;63.80
74294;DHT22;64044;59.904;10.738;2023-11-19T01:43:03;-2.60;63.70
74294;DHT22;64044;59.904;10.738;2023-11-19T01:45:30;-2.60;63.60
74294;DHT22;64044;59.904;10.738;2023-11-19T01:47:57;-2.60;64.30
74294;DHT22;64044;59.904;10.738;2023-11-19T01:50:24;-2.60;63.50
74294;DHT22;64044;59.904;10.738;2023-11-19T01:52:54;-2.60;63.60
74294;DHT22;64044;59.904;10.738;2023-11-19T01:55:24;-2.60;63.60
74294;DHT22;64044;59.904;10.738;2023-11-19T01:57:51;-2.50;63.90
74294;DHT22;64044;59.904;10.738;2023-11-19T02:00:19;-2.50;63.70
74294;DHT22;64044;59.904;10.738;2023-11-19T02:02:46;-2.50;63.70
74294;DHT22;64044;59.904;10.738;2023-11-19T02:05:14;-2.50;63.70
74294;DHT22;64044;59.904;10.738;2023-11-19T02:07:40;-2.50;63.70
74294;DHT22;64044;59.904;10.738;2023-11-19T02:10:06;-2.50;63.80
74294;DHT22;64044;59.904;10.738;2023-11-19T02:12:39;-2.40;63.90
74294;DHT22;64044;59.904;10.738;2023-11-19T02:15:09;-2.50;63.90
74294;DHT22;64044;59.904;10.738;2023-11-19T02:17:35;-2.50;64.00
74294;DHT22;64044;59.904;10.738;2023-11-19T02:20:03;-2.40;64.10
74294;DHT22;64044;59.904;10.738;2023-11-19T02:22:32;-2.40;64.10
74294;DHT22;64044;59.904;10.738;2023-11-19T02:25:07;-2.40;64.30
74294;DHT22;64044;59.904;10.738;2023-11-19T02:27:43;-2.30;64.50
74294;DHT22;64044;59.904;10.738;2023-11-19T02:30:11;-2.30;64.70
74294;DHT22;64044;59.904;10.738;2023-11-19T02:32:37;-2.30;65.20
74294;DHT22;64044;59.904;10.738;2023-11-19T02:35:04;-2.30;64.50
74294;DHT22;64044;59.904;10.738;2023-11-19T02:37:30;-2.30;64.10
74294;DHT22;64044;59.904;10.738;2023-11-19T02:39:56;-2.20;64.00
74294;DHT22;64044;59.904;10.738;2023-11-19T02:42:21;-2.30;64.00
74294;DHT22;64044;59.904;10.738;2023-11-19T02:44:47;-2.30;63.80
74294;DHT22;64044;59.904;10.738;2023-11-19T02:47:14;-2.20;63.90
74294;DHT22;64044;59.904;10.738;2023-11-19T02:49:39;-2.30;63.90
74294;DHT22;64044;59.904;10.738;2023-11-19T02:52:06;-2.30;63.90
74294;DHT22;64044;59.904;10.738;2023-11-19T02:54:31;-2.30;63.70
74294;DHT22;64044;59.904;10.738;2023-11-19T02:57:00;-2.30;63.70
74294;DHT22;64044;59.904;10.738;2023-11-19T02:59:28;-2.30;63.70
74294;DHT22;64044;59.904;10.738;2023-11-19T03:02:07;-2.30;63.70
74294;DHT22;64044;59.904;10.738;2023-11-19T03:04:36;-2.30;63.60
74294;DHT22;64044;59.904;10.738;2023-11-19T03:07:05;-2.30;63.60
74294;DHT22;64044;59.904;10.738;2023-11-19T03:09:33;-2.30;63.80
74294;DHT22;64044;59.904;10.738;2023-11-19T03:11:59;-2.30;63.80
74294;DHT22;64044;59.904;10.738;2023-11-19T03:14:25;-2.20;63.70
74294;DHT22;64044;59.904;10.738;2023-11-19T03:16:51;-2.20;63.60
74294;DHT22;64044;59.904;10.738;2023-11-19T03:19:17;-2.30;63.50
74294;DHT22;64044;59.904;10.738;2023-11-19T03:21:42;-2.30;63.30
74294;DHT22;64044;59.904;10.738;2023-11-19T03:24:08;-2.30;63.30
74294;DHT22;64044;59.904;10.738;2023-11-19T03:26:34;-2.30;63.30
74294;DHT22;64044;59.904;10.738;2023-11-19T03:29:00;-2.30;63.30
74294;DHT22;64044;59.904;10.738;2023-11-19T03:31:26;-2.30;63.20
74294;DHT22;64044;59.904;10.738;2023-11-19T03:33:52;-2.30;63.10
74294;DHT22;64044;59.904;10.738;2023-11-19T03:36:18;-2.30;63.00
74294;DHT22;64044;59.904;10.738;2023-11-19T03:38:44;-2.30;63.00
74294;DHT22;64044;59.904;10.738;2023-11-19T03:41:13;-2.30;63.00
74294;DHT22;64044;59.904;10.738;2023-11-19T03:43:39;-2.30;63.20
74294;DHT22;64044;59.904;10.738;2023-11-19T03:46:24;-2.40;63.20
74294;DHT22;64044;59.904;10.738;2023-11-19T03:48:50;-2.40;64.10
74294;DHT22;64044;59.904;10.738;2023-11-19T03:51:16;-2.30;63.40
74294;DHT22;64044;59.904;10.738;2023-11-19T03:53:43;-2.40;63.20
74294;DHT22;64044;59.904;10.738;2023-11-19T03:56:10;-2.30;63.40
74294;DHT22;64044;59.904;10.738;2023-11-19T03:58:36;-2.40;63.30
74294;DHT22;64044;59.904;10.738;2023-11-19T04:01:16;-2.40;63.30
74294;DHT22;64044;59.904;10.738;2023-11-19T04:03:42;-2.40;63.30
74294;DHT22;64044;59.904;10.738;2023-11-19T04:06:08;-2.40;63.30
74294;DHT22;64044;59.904;10.738;2023-11-19T04:08:35;-2.40;63.40
74294;DHT22;64044;59.904;10.738;2023-11-19T04:11:03;-2.40;64.10
74294;DHT22;64044;59.904;10.738;2023-11-19T04:13:29;-2.40;63.40
74294;DHT22;64044;59.904;10.738;2023-11-19T04:15:54;-2.40;63.50
74294;DHT22;64044;59.904;10.738;2023-11-19T04:18:20;-2.40;63.60
74294;DHT22;64044;59.904;10.738;2023-11-19T04:20:46;-2.50;63.60
74294;DHT22;64044;59.904;10.738;2023-11-19T04:23:11;-2.50;63.70
74294;DHT22;64044;59.904;10.738;2023-11-19T04:25:37;-2.50;63.80
74294;DHT22;64044;59.904;10.738;2023-11-19T04:28:03;-2.50;63.90
74294;DHT22;64044;59.904;10.738;2023-11-19T04:30:29;-2.40;64.00
74294;DHT22;64044;59.904;10.738;2023-11-19T04:32:57;-2.40;63.80
74294;DHT22;64044;59.904;10.738;2023-11-19T04:35:23;-2.40;63.80
74294;DHT22;64044;59.904;10.738;2023-11-19T04:37:49;-2.40;63.80
74294;DHT22;64044;59.904;10.738;2023-11-19T04:40:14;-2.40;63.80
74294;DHT22;64044;59.904;10.738;2023-11-19T04:42:40;-2.40;64.10
74294;DHT22;64044;59.904;10.738;2023-11-19T04:45:06;-2.40;64.00
74294;DHT22;64044;59.904;10.738;2023-11-19T04:47:35;-2.40;63.90
74294;DHT22;64044;59.904;10.738;2023-11-19T04:50:02;-2.40;64.00
74294;DHT22;64044;59.904;10.738;2023-11-19T04:52:28;-2.40;64.10
74294;DHT22;64044;59.904;10.738;2023-11-19T04:54:54;-2.40;64.30
74294;DHT22;64044;59.904;10.738;2023-11-19T04:57:20;-2.40;64.20
74294;DHT22;64044;59.904;10.738;2023-11-19T04:59:46;-2.40;64.40
74294;DHT22;64044;59.904;10.738;2023-11-19T05:02:12;-2.40;64.30
74294;DHT22;64044;59.904;10.738;2023-11-19T05:04:42;-2.40;64.40
74294;DHT22;64044;59.904;10.738;2023-11-19T05:07:09;-2.40;64.30
74294;DHT22;64044;59.904;10.738;2023-11-19T05:09:35;-2.40;64.10
74294;DHT22;64044;59.904;10.738;2023-11-19T05:12:01;-2.40;64.10
74294;DHT22;64044;59.904;10.738;2023-11-19T05:14:27;-2.40;64.10
74294;DHT22;64044;59.904;10.738;2023-11-19T05:16:53;-2.40;64.10
74294;DHT22;64044;59.904;10.738;2023-11-19T05:19:19;-2.50;64.00
74294;DHT22;64044;59.904;10.738;2023-11-19T05:21:44;-2.50;64.00
74294;DHT22;64044;59.904;10.738;2023-11-19T05:24:10;-2.50;64.10
74294;DHT22;64044;59.904;10.738;2023-11-19T05:26:37;-2.50;64.30
74294;DHT22;64044;59.904;10.738;2023-11-19T05:29:28;-2.50;64.40
74294;DHT22;64044;59.904;10.738;2023-11-19T05:31:55;-2.40;64.50
74294;DHT22;64044;59.904;10.738;2023-11-19T05:34:21;-2.40;64.60
74294;DHT22;64044;59.904;10.738;2023-11-19T05:36:46;-2.40;64.50
74294;DHT22;64044;59.904;10.738;2023-11-19T05:39:12;-2.40;64.50
74294;DHT22;64044;59.904;10.738;2023-11-19T05:41:38;-2.40;64.50
74294;DHT22;64044;59.904;10.738;2023-11-19T05:44:04;-2.40;64.70
74294;DHT22;64044;59.904;10.738;2023-11-19T05:46:30;-2.30;64.60
74294;DHT22;64044;59.904;10.738;2023-11-19T05:48:55;-2.30;64.50
74294;DHT22;64044;59.904;10.738;2023-11-19T05:51:21;-2.20;64.60
74294;DHT22;64044;59.904;10.738;2023-11-19T05:53:49;-2.20;64.60
74294;DHT22;64044;59.904;10.738;2023-11-19T05:56:16;-2.20;64.60
74294;DHT22;64044;59.904;10.738;2023-11-19T05:58:46;-2.10;64.50
74294;DHT22;64044;59.904;10.738;2023-11-19T06:01:13;-2.10;64.40
74294;DHT22;64044;59.904;10.738;2023-11-19T06:03:39;-2.10;64.20
74294;DHT22;64044;59.904;10.738;2023-11-19T06:06:05;-2.10;64.20
74294;DHT22;64044;59.904;10.738;2023-11-19T06:08:31;-2.00;64.40
74294;DHT22;64044;59.904;10.738;2023-11-19T06:10:57;-2.00;64.20
74294;DHT22;64044;59.904;10.738;2023-11-19T06:13:23;-2.00;64.10
74294;DHT22;64044;59.904;10.738;2023-11-19T06:15:49;-2.00;64.20
74294;DHT22;64044;59.904;10.738;2023-11-19T06:18:16;-2.00;64.50
74294;DHT22;64044;59.904;10.738;2023-11-19T06:20:42;-1.90;64.40
74294;DHT22;64044;59.904;10.738;2023-11-19T06:23:08;-2.00;64.20
74294;DHT22;64044;59.904;10.738;2023-11-19T06:25:34;-1.90;64.30
74294;DHT22;64044;59.904;10.738;2023-11-19T06:28:01;-1.90;64.30
74294;DHT22;64044;59.904;10.738;2023-11-19T06:30:26;-1.90;64.40
74294;DHT22;64044;59.904;10.738;2023-11-19T06:32:54;-1.90;64.50
74294;DHT22;64044;59.904;10.738;2023-11-19T06:35:19;-1.90;64.40
74294;DHT22;64044;59.904;10.738;2023-11-19T06:37:45;-1.80;64.60
74294;DHT22;64044;59.904;10.738;2023-11-19T06:40:11;-1.80;64.60
74294;DHT22;64044;59.904;10.738;2023-11-19T06:42:37;-1.80;64.50
74294;DHT22;64044;59.904;10.738;2023-11-19T06:45:04;-1.80;64.50
74294;DHT22;64044;59.904;10.738;2023-11-19T06:47:32;-1.70;64.50
74294;DHT22;64044;59.904;10.738;2023-11-19T06:49:58;-1.70;64.50
74294;DHT22;64044;59.904;10.738;2023-11-19T06:52:24;-1.70;64.40
74294;DHT22;64044;59.904;10.738;2023-11-19T06:54:50;-1.60;64.50
74294;DHT22;64044;59.904;10.738;2023-11-19T06:57:16;-1.60;64.60
74294;DHT22;64044;59.904;10.738;2023-11-19T06:59:42;-1.60;64.70
74294;DHT22;64044;59.904;10.738;2023-11-19T07:02:08;-1.60;64.70
74294;DHT22;64044;59.904;10.738;2023-11-19T07:04:34;-1.60;64.60
74294;DHT22;64044;59.904;10.738;2023-11-19T07:07:00;-1.50;64.50
74294;DHT22;64044;59.904;10.738;2023-11-19T07:09:26;-1.50;64.40
74294;DHT22;64044;59.904;10.738;2023-11-19T07:11:52;-1.50;64.50
74294;DHT22;64044;59.904;10.738;2023-11-19T07:14:19;-1.50;64.40
74294;DHT22;64044;59.904;10.738;2023-11-19T07:16:45;-1.40;64.30
74294;DHT22;64044;59.904;10.738;2023-11-19T07:19:15;-1.40;64.30
74294;DHT22;64044;59.904;10.738;2023-11-19T07:21:41;-1.50;64.30
74294;DHT22;64044;59.904;10.738;2023-11-19T07:24:09;-1.50;63.90
74294;DHT22;64044;59.904;10.738;2023-11-19T07:26:36;-1.50;63.80
74294;DHT22;64044;59.904;10.738;2023-11-19T07:29:03;-1.50;63.90
74294;DHT22;64044;59.904;10.738;2023-11-19T07:31:28;-1.50;63.90
74294;DHT22;64044;59.904;10.738;2023-11-19T07:33:54;-1.50;63.90
74294;DHT22;64044;59.904;10.738;2023-11-19T07:36:20;-1.60;63.90
74294;DHT22;64044;59.904;10.738;2023-11-19T07:38:46;-1.60;64.00
74294;DHT22;64044;59.904;10.738;2023-11-19T07:41:38;-1.60;64.10
74294;DHT22;64044;59.904;10.738;2023-11-19T07:44:04;-1.60;64.40
74294;DHT22;64044;59.904;10.738;2023-11-19T07:46:30;-1.60;64.20
74294;DHT22;64044;59.904;10.738;2023-11-19T07:48:57;-1.60;64.20
74294;DHT22;64044;59.904;10.738;2023-11-19T07:51:23;-1.70;64.30
74294;DHT22;64044;59.904;10.738;2023-11-19T07:53:49;-1.70;64.50
74294;DHT22;64044;59.904;10.738;2023-11-19T07:56:15;-1.70;64.50
74294;DHT22;64044;59.904;10.738;2023-11-19T07:58:41;-1.70;64.70
74294;DHT22;64044;59.904;10.738;2023-11-19T08:01:07;-1.60;64.80
74294;DHT22;64044;59.904;10.738;2023-11-19T08:03:33;-1.60;64.80
74294;DHT22;64044;59.904;10.738;2023-11-19T08:06:03;-1.60;65.10
74294;DHT22;64044;59.904;10.738;2023-11-19T08:08:29;-1.60;65.00
74294;DHT22;64044;59.904;10.738;2023-11-19T08:10:56;-1.60;64.90
74294;DHT22;64044;59.904;10.738;2023-11-19T08:13:25;-1.60;64.90
74294;DHT22;64044;59.904;10.738;2023-11-19T08:15:51;-1.50;65.00
74294;DHT22;64044;59.904;10.738;2023-11-19T08:18:17;-1.50;65.10
74294;DHT22;64044;59.904;10.738;2023-11-19T08:20:44;-1.50;65.20
74294;DHT22;64044;59.904;10.738;2023-11-19T08:23:10;-1.50;65.20
74294;DHT22;64044;59.904;10.738;2023-11-19T08:25:36;-1.40;65.20
74294;DHT22;64044;59.904;10.738;2023-11-19T08:28:02;-1.40;65.20
74294;DHT22;64044;59.904;10.738;2023-11-19T08:30:29;-1.30;65.40
74294;DHT22;64044;59.904;10.738;2023-11-19T08:32:55;-1.30;65.50
74294;DHT22;64044;59.904;10.738;2023-11-19T08:35:21;-1.30;65.40
74294;DHT22;64044;59.904;10.738;2023-11-19T08:37:47;-1.20;65.30
74294;DHT22;64044;59.904;10.738;2023-11-19T08:40:13;-1.20;65.30
74294;DHT22;64044;59.904;10.738;2023-11-19T08:42:40;-1.10;65.30
74294;DHT22;64044;59.904;10.738;2023-11-19T08:45:07;-1.10;65.30
74294;DHT22;64044;59.904;10.738;2023-11-19T08:47:36;-1.00;65.40
74294;DHT22;64044;59.904;10.738;2023-11-19T08:50:01;-1.00;65.20
74294;DHT22;64044;59.904;10.738;2023-11-19T08:52:27;-1.00;65.20
74294;DHT22;64044;59.904;10.738;2023-11-19T08:54:53;-1.00;65.20
74294;DHT22;64044;59.904;10.738;2023-11-19T08:57:18;-0.90;65.20
74294;DHT22;64044;59.904;10.738;2023-11-19T08:59:44;-0.90;65.20
74294;DHT22;64044;59.904;10.738;2023-11-19T09:02:11;-0.80;65.20
74294;DHT22;64044;59.904;10.738;2023-11-19T09:04:37;-0.80;65.00
74294;DHT22;64044;59.904;10.738;2023-11-19T09:07:02;-0.70;65.00
74294;DHT22;64044;59.904;10.738;2023-11-19T09:09:29;-0.70;65.00
74294;DHT22;64044;59.904;10.738;2023-11-19T09:11:55;-0.70;64.80
74294;DHT22;64044;59.904;10.738;2023-11-19T09:14:21;-0.70;65.40
74294;DHT22;64044;59.904;10.738;2023-11-19T09:16:51;-0.70;64.50
74294;DHT22;64044;59.904;10.738;2023-11-19T09:19:17;-0.70;64.60
74294;DHT22;64044;59.904;10.738;2023-11-19T09:21:43;-0.70;64.70
74294;DHT22;64044;59.904;10.738;2023-11-19T09:24:09;-0.60;64.80
74294;DHT22;64044;59.904;10.738;2023-11-19T09:26:35;-0.60;64.90
74294;DHT22;64044;59.904;10.738;2023-11-19T09:29:02;-0.60;65.00
74294;DHT22;64044;59.904;10.738;2023-11-19T09:31:27;-0.60;65.00
74294;DHT22;64044;59.904;10.738;2023-11-19T09:33:53;-0.50;65.00
74294;DHT22;64044;59.904;10.738;2023-11-19T09:36:19;-0.50;64.90
74294;DHT22;64044;59.904;10.738;2023-11-19T09:38:45;-0.40;65.00
74294;DHT22;64044;59.904;10.738;2023-11-19T09:41:11;-0.40;64.90
74294;DHT22;64044;59.904;10.738;2023-11-19T09:43:42;-0.30;64.90
74294;DHT22;64044;59.904;10.738;2023-11-19T09:46:12;-0.30;65.00
74294;DHT22;64044;59.904;10.738;2023-11-19T09:48:39;-0.20;64.90
74294;DHT22;64044;59.904;10.738;2023-11-19T09:51:09;-0.20;64.70
74294;DHT22;64044;59.904;10.738;2023-11-19T09:53:36;-0.10;64.70
74294;DHT22;64044;59.904;10.738;2023-11-19T09:56:05;-0.10;64.60
74294;DHT22;64044;59.904;10.738;2023-11-19T09:58:33;-0.10;64.60
74294;DHT22;64044;59.904;10.738;2023-11-19T10:01:00;0.00;64.60
74294;DHT22;64044;59.904;10.738;2023-11-19T10:03:35;0.00;64.50
74294;DHT22;64044;59.904;10.738;2023-11-19T10:06:06;0.00;64.50
74294;DHT22;64044;59.904;10.738;2023-11-19T10:08:33;0.10;64.50
74294;DHT22;64044;59.904;10.738;2023-11-19T10:10:59;0.10;64.50
74294;DHT22;64044;59.904;10.738;2023-11-19T10:13:28;0.20;64.50
74294;DHT22;64044;59.904;10.738;2023-11-19T10:15:55;0.20;64.50
74294;DHT22;64044;59.904;10.738;2023-11-19T10:18:27;0.20;64.40
74294;DHT22;64044;59.904;10.738;2023-11-19T10:20:53;0.30;64.50
74294;DHT22;64044;59.904;10.738;2023-11-19T10:23:20;0.30;64.20
74294;DHT22;64044;59.904;10.738;2023-11-19T10:25:46;0.30;64.20
74294;DHT22;64044;59.904;10.738;2023-11-19T10:28:15;0.30;64.20
74294;DHT22;64044;59.904;10.738;2023-11-19T10:30:41;0.40;64.10
74294;DHT22;64044;59.904;10.738;2023-11-19T10:33:09;0.40;64.00
74294;DHT22;64044;59.904;10.738;2023-11-19T10:35:36;0.40;63.80
74294;DHT22;64044;59.904;10.738;2023-11-19T10:38:21;0.40;63.70
74294;DHT22;64044;59.904;10.738;2023-11-19T10:40:48;0.40;63.90
74294;DHT22;64044;59.904;10.738;2023-11-19T10:43:14;0.40;63.70
74294;DHT22;64044;59.904;10.738;2023-11-19T10:45:40;0.40;63.70
74294;DHT22;64044;59.904;10.738;2023-11-19T10:48:07;0.40;63.70
74294;DHT22;64044;59.904;10.738;2023-11-19T10:50:34;0.40;63.50
74294;DHT22;64044;59.904;10.738;2023-11-19T10:53:00;0.40;63.70
74294;DHT22;64044;59.904;10.738;2023-11-19T10:55:33;0.40;63.70
74294;DHT22;64044;59.904;10.738;2023-11-19T10:58:07;0.30;63.60
74294;DHT22;64044;59.904;10.738;2023-11-19T11:03:25;0.40;63.70
74294;DHT22;64044;59.904;10.738;2023-11-19T11:05:54;0.40;63.60
74294;DHT22;64044;59.904;10.738;2023-11-19T11:08:20;0.40;63.50
74294;DHT22;64044;59.904;10.738;2023-11-19T11:10:55;0.40;63.60
74294;DHT22;64044;59.904;10.738;2023-11-19T11:13:25;0.40;63.70
74294;DHT22;64044;59.904;10.738;2023-11-19T11:15:56;0.40;63.70
74294;DHT22;64044;59.904;10.738;2023-11-19T11:18:24;0.40;63.60
74294;DHT22;64044;59.904;10.738;2023-11-19T11:21:06;0.40;63.50
74294;DHT22;64044;59.904;10.738;2023-11-19T11:37:27;0.30;63.20
74294;DHT22;64044;59.904;10.738;2023-11-19T11:39:57;0.30;63.10
74294;DHT22;64044;59.904;10.738;2023-11-19T11:45:16;0.20;63.20
74294;DHT22;64044;59.904;10.738;2023-11-19T11:50:09;0.20;63.20
74294;DHT22;64044;59.904;10.738;2023-11-19T11:57:51;0.20;63.10
74294;DHT22;64044;59.904;10.738;2023-11-19T12:02:49;0.20;63.20
74294;DHT22;64044;59.904;10.738;2023-11-19T12:05:15;0.20;64.10
74294;DHT22;64044;59.904;10.738;2023-11-19T12:07:45;0.20;63.30
74294;DHT22;64044;59.904;10.738;2023-11-19T12:10:20;0.20;63.30
74294;DHT22;64044;59.904;10.738;2023-11-19T12:12:47;0.20;63.30
74294;DHT22;64044;59.904;10.738;2023-11-19T12:15:13;0.20;63.40
74294;DHT22;64044;59.904;10.738;2023-11-19T12:17:46;0.20;63.50
74294;DHT22;64044;59.904;10.738;2023-11-19T12:20:15;0.20;63.50
74294;DHT22;64044;59.904;10.738;2023-11-19T12:22:44;0.20;63.40
74294;DHT22;64044;59.904;10.738;2023-11-19T12:25:11;0.30;63.50
74294;DHT22;64044;59.904;10.738;2023-11-19T12:27:41;0.30;63.40
74294;DHT22;64044;59.904;10.738;2023-11-19T12:30:08;0.30;63.40
74294;DHT22;64044;59.904;10.738;2023-11-19T12:32:43;0.30;63.40
74294;DHT22;64044;59.904;10.738;2023-11-19T12:35:10;0.30;63.30
74294;DHT22;64044;59.904;10.738;2023-11-19T12:37:44;0.30;63.30
74294;DHT22;64044;59.904;10.738;2023-11-19T12:40:15;0.30;63.30
74294;DHT22;64044;59.904;10.738;2023-11-19T12:42:45;0.30;63.30
74294;DHT22;64044;59.904;10.738;2023-11-19T12:45:11;0.40;63.40
74294;DHT22;64044;59.904;10.738;2023-11-19T12:47:38;0.40;63.30
74294;DHT22;64044;59.904;10.738;2023-11-19T12:50:05;0.30;63.30
74294;DHT22;64044;59.904;10.738;2023-11-19T12:52:32;0.40;63.40
74294;DHT22;64044;59.904;10.738;2023-11-19T12:54:58;0.40;63.40
74294;DHT22;64044;59.904;10.738;2023-11-19T12:57:42;0.40;63.40
74294;DHT22;64044;59.904;10.738;2023-11-19T13:00:19;0.40;63.50
74294;DHT22;64044;59.904;10.738;2023-11-19T13:02:53;0.40;63.40
74294;DHT22;64044;59.904;10.738;2023-11-19T13:05:29;0.40;63.30
74294;DHT22;64044;59.904;10.738;2023-11-19T13:08:00;0.40;63.40
74294;DHT22;64044;59.904;10.738;2023-11-19T13:10:26;0.50;63.40
74294;DHT22;64044;59.904;10.738;2023-11-19T13:13:11;0.40;63.30
74294;DHT22;64044;59.904;10.738;2023-11-19T13:15:37;0.40;63.40
74294;DHT22;64044;59.904;10.738;2023-11-19T13:18:03;0.40;63.40
74294;DHT22;64044;59.904;10.738;2023-11-19T13:20:29;0.40;63.40
74294;DHT22;64044;59.904;10.738;2023-11-19T13:25:21;0.50;63.50
74294;DHT22;64044;59.904;10.738;2023-11-19T13:27:46;0.50;63.50
74294;DHT22;64044;59.904;10.738;2023-11-19T13:30:13;0.50;63.30
74294;DHT22;64044;59.904;10.738;2023-11-19T13:32:39;0.50;63.20
74294;DHT22;64044;59.904;10.738;2023-11-19T13:35:05;0.50;63.00
74294;DHT22;64044;59.904;10.738;2023-11-19T13:37:31;0.50;63.00
74294;DHT22;64044;59.904;10.738;2023-11-19T13:39:56;0.40;63.00
74294;DHT22;64044;59.904;10.738;2023-11-19T13:42:22;0.50;63.10
74294;DHT22;64044;59.904;10.738;2023-11-19T13:44:48;0.40;63.10
74294;DHT22;64044;59.904;10.738;2023-11-19T13:47:13;0.50;63.20
74294;DHT22;64044;59.904;10.738;2023-11-19T13:49:39;0.40;63.10
74294;DHT22;64044;59.904;10.738;2023-11-19T13:52:05;0.40;63.10
74294;DHT22;64044;59.904;10.738;2023-11-19T13:54:31;0.40;63.10
74294;DHT22;64044;59.904;10.738;2023-11-19T13:56:57;0.40;63.10
74294;DHT22;64044;59.904;10.738;2023-11-19T13:59:23;0.40;63.20
74294;DHT22;64044;59.904;10.738;2023-11-19T14:01:49;0.40;63.10
74294;DHT22;64044;59.904;10.738;2023-11-19T14:04:15;0.40;63.10
74294;DHT22;64044;59.904;10.738;2023-11-19T14:06:40;0.40;63.10
74294;DHT22;64044;59.904;10.738;2023-11-19T14:09:09;0.40;63.20
74294;DHT22;64044;59.904;10.738;2023-11-19T14:11:35;0.40;63.20
74294;DHT22;64044;59.904;10.738;2023-11-19T14:14:00;0.40;63.20
74294;DHT22;64044;59.904;10.738;2023-11-19T14:16:27;0.40;64.00
74294;DHT22;64044;59.904;10.738;2023-11-19T14:18:52;0.40;63.20
74294;DHT22;64044;59.904;10.738;2023-11-19T14:21:18;0.30;63.10
74294;DHT22;64044;59.904;10.738;2023-11-19T14:23:44;0.40;63.10
74294;DHT22;64044;59.904;10.738;2023-11-19T14:26:10;0.30;63.00
74294;DHT22;64044;59.904;10.738;2023-11-19T14:28:35;0.40;63.10
74294;DHT22;64044;59.904;10.738;2023-11-19T14:31:01;0.40;63.20
74294;DHT22;64044;59.904;10.738;2023-11-19T14:33:27;0.30;63.10
74294;DHT22;64044;59.904;10.738;2023-11-19T14:35:52;0.30;63.00
74294;DHT22;64044;59.904;10.738;2023-11-19T14:38:18;0.30;63.10
74294;DHT22;64044;59.904;10.738;2023-11-19T14:40:44;0.30;63.20
74294;DHT22;64044;59.904;10.738;2023-11-19T14:43:10;0.30;63.20
74294;DHT22;64044;59.904;10.738;2023-11-19T14:45:36;0.30;64.00
74294;DHT22;64044;59.904;10.738;2023-11-19T14:48:01;0.30;63.40
74294;DHT22;64044;59.904;10.738;2023-11-19T14:50:27;0.30;63.50
74294;DHT22;64044;59.904;10.738;2023-11-19T14:52:53;0.40;63.50
74294;DHT22;64044;59.904;10.738;2023-11-19T14:55:19;0.30;63.50
74294;DHT22;64044;59.904;10.738;2023-11-19T14:57:45;0.30;63.30
74294;DHT22;64044;59.904;10.738;2023-11-19T15:00:11;0.40;63.40
74294;DHT22;64044;59.904;10.738;2023-11-19T15:02:41;0.40;63.40
74294;DHT22;64044;59.904;10.738;2023-11-19T15:05:07;0.40;63.50
74294;DHT22;64044;59.904;10.738;2023-11-19T15:07:38;0.40;63.40
74294;DHT22;64044;59.904;10.738;2023-11-19T15:10:06;0.40;63.30
74294;DHT22;64044;59.904;10.738;2023-11-19T15:12:36;0.40;63.40
74294;DHT22;64044;59.904;10.738;2023-11-19T15:15:06;0.40;64.10
74294;DHT22;64044;59.904;10.738;2023-11-19T15:17:32;0.40;63.30
74294;DHT22;64044;59.904;10.738;2023-11-19T15:19:58;0.40;63.20
74294;DHT22;64044;59.904;10.738;2023-11-19T15:22:24;0.40;63.20
74294;DHT22;64044;59.904;10.738;2023-11-19T15:24:50;0.50;63.40
74294;DHT22;64044;59.904;10.738;2023-11-19T15:27:15;0.40;63.30
74294;DHT22;64044;59.904;10.738;2023-11-19T15:29:42;0.50;63.60
74294;DHT22;64044;59.904;10.738;2023-11-19T15:32:07;0.50;63.30
74294;DHT22;64044;59.904;10.738;2023-11-19T15:34:33;0.50;63.20
74294;DHT22;64044;59.904;10.738;2023-11-19T15:37:00;0.50;63.20
74294;DHT22;64044;59.904;10.738;2023-11-19T15:39:26;0.50;63.20
74294;DHT22;64044;59.904;10.738;2023-11-19T15:41:54;0.50;63.30
74294;DHT22;64044;59.904;10.738;2023-11-19T15:44:21;0.50;63.40
74294;DHT22;64044;59.904;10.738;2023-11-19T15:46:46;0.50;63.30
74294;DHT22;64044;59.904;10.738;2023-11-19T15:49:12;0.50;63.30
74294;DHT22;64044;59.904;10.738;2023-11-19T15:51:38;0.50;63.20